sensor_id;sensor_type;location;lat;lon;timestamp;noise_LAeq;noise_LA_min;noise_LA_max;noise_LA01;noise_LA95
79200;Laerm;68628;48.714;9.472;2023-07-13T00:00:37;46.76;46.16;47.51;;
79200;Laerm;68628;48.714;9.472;2023-07-13T00:03:04;46.76;46.19;48.65;;
79200;Laerm;68628;48.714;9.472;2023-07-13T00:05:32;46.76;46.15;47.93;;
79200;Laerm;68628;48.714;9.472;2023-07-13T00:07:58;46.89;46.22;48.18;;
79200;Laerm;68628;48.714;9.472;2023-07-13T00:10:24;46.91;46.22;48.77;;
79200;Laerm;68628;48.714;9.472;2023-07-13T00:12:50;46.88;46.17;48.62;;
79200;Laerm;68628;48.714;9.472;2023-07-13T00:15:23;46.97;46.29;48.61;;
79200;Laerm;68628;48.714;9.472;2023-07-13T00:17:51;46.75;46.22;48.14;;
79200;Laerm;68628;48.714;9.472;2023-07-13T00:20:21;46.88;46.02;48.38;;
79200;Laerm;68628;48.714;9.472;2023-07-13T00:22:49;46.77;46.11;48.10;;
79200;Laerm;68628;48.714;9.472;2023-07-13T00:25:16;46.75;46.19;47.46;;
79200;Laerm;68628;48.714;9.472;2023-07-13T00:27:44;46.97;46.21;48.44;;
79200;Laerm;68628;48.714;9.472;2023-07-13T00:30:11;46.96;46.19;51.21;;
79200;Laerm;68628;48.714;9.472;2023-07-13T00:32:38;46.99;46.23;49.36;;
79200;Laerm;68628;48.714;9.472;2023-07-13T00:35:04;46.80;46.24;48.18;;
79200;Laerm;68628;48.714;9.472;2023-07-13T00:37:30;46.81;46.07;48.36;;
79200;Laerm;68628;48.714;9.472;2023-07-13T00:39:56;46.82;46.20;48.42;;
79200;Laerm;68628;48.714;9.472;2023-07-13T00:42:21;46.80;46.30;47.92;;
79200;Laerm;68628;48.714;9.472;2023-07-13T00:47:40;46.86;46.21;48.47;;
79200;Laerm;68628;48.714;9.472;2023-07-13T00:50:10;46.84;46.15;48.85;;
79200;Laerm;68628;48.714;9.472;2023-07-13T00:52:43;47.04;46.21;55.10;;
79200;Laerm;68628;48.714;9.472;2023-07-13T00:55:13;47.21;46.18;52.89;;
79200;Laerm;68628;48.714;9.472;2023-07-13T00:57:41;46.86;46.23;49.02;;
79200;Laerm;68628;48.714;9.472;2023-07-13T01:00:08;47.04;46.24;48.94;;
79200;Laerm;68628;48.714;9.472;2023-07-13T01:02:42;46.96;46.30;49.27;;
79200;Laerm;68628;48.714;9.472;2023-07-13T01:05:15;47.64;46.34;53.67;;
79200;Laerm;68628;48.714;9.472;2023-07-13T01:07:44;46.96;46.11;50.23;;
79200;Laerm;68628;48.714;9.472;2023-07-13T01:10:12;47.04;46.27;52.86;;
79200;Laerm;68628;48.714;9.472;2023-07-13T01:12:38;46.92;46.28;48.86;;
79200;Laerm;68628;48.714;9.472;2023-07-13T01:15:06;46.93;46.23;50.16;;
79200;Laerm;68628;48.714;9.472;2023-07-13T01:17:51;47.01;46.14;49.55;;
79200;Laerm;68628;48.714;9.472;2023-07-13T01:20:17;47.10;46.22;53.77;;
79200;Laerm;68628;48.714;9.472;2023-07-13T01:22:42;47.01;46.25;49.70;;
79200;Laerm;68628;48.714;9.472;2023-07-13T01:25:08;47.17;46.29;49.58;;
79200;Laerm;68628;48.714;9.472;2023-07-13T01:27:34;46.91;46.33;48.36;;
79200;Laerm;68628;48.714;9.472;2023-07-13T01:29:59;49.61;46.25;55.95;;
79200;Laerm;68628;48.714;9.472;2023-07-13T01:32:29;47.10;46.24;51.87;;
79200;Laerm;68628;48.714;9.472;2023-07-13T01:34:56;47.24;46.28;52.96;;
79200;Laerm;68628;48.714;9.472;2023-07-13T01:37:26;47.28;46.13;54.33;;
79200;Laerm;68628;48.714;9.472;2023-07-13T01:39:53;46.96;46.18;49.89;;
79200;Laerm;68628;48.714;9.472;2023-07-13T01:42:19;47.33;46.15;53.39;;
79200;Laerm;68628;48.714;9.472;2023-07-13T01:44:44;47.09;46.26;53.29;;
79200;Laerm;68628;48.714;9.472;2023-07-13T01:47:11;47.17;46.24;55.61;;
79200;Laerm;68628;48.714;9.472;2023-07-13T01:49:36;47.06;46.30;49.75;;
79200;Laerm;68628;48.714;9.472;2023-07-13T01:52:03;47.14;46.26;49.30;;
79200;Laerm;68628;48.714;9.472;2023-07-13T01:54:29;46.99;46.25;49.29;;
79200;Laerm;68628;48.714;9.472;2023-07-13T01:56:55;47.37;46.22;53.27;;
79200;Laerm;68628;48.714;9.472;2023-07-13T01:59:20;47.39;46.31;50.59;;
79200;Laerm;68628;48.714;9.472;2023-07-13T02:01:46;46.93;46.30;49.12;;
79200;Laerm;68628;48.714;9.472;2023-07-13T02:04:11;46.85;46.31;47.46;;
79200;Laerm;68628;48.714;9.472;2023-07-13T02:06:37;46.96;46.33;47.50;;
79200;Laerm;68628;48.714;9.472;2023-07-13T02:09:03;46.87;46.30;47.47;;
79200;Laerm;68628;48.714;9.472;2023-07-13T02:11:28;46.81;46.10;47.38;;
79200;Laerm;68628;48.714;9.472;2023-07-13T02:14:00;46.81;46.23;48.73;;
79200;Laerm;68628;48.714;9.472;2023-07-13T02:16:27;46.92;46.30;49.67;;
79200;Laerm;68628;48.714;9.472;2023-07-13T02:18:53;46.98;46.37;48.11;;
79200;Laerm;68628;48.714;9.472;2023-07-13T02:21:21;46.87;46.25;47.58;;
79200;Laerm;68628;48.714;9.472;2023-07-13T02:23:47;47.05;46.32;50.99;;
79200;Laerm;68628;48.714;9.472;2023-07-13T02:26:13;46.87;46.27;49.61;;
79200;Laerm;68628;48.714;9.472;2023-07-13T02:28:38;47.26;46.38;50.13;;
79200;Laerm;68628;48.714;9.472;2023-07-13T02:31:10;46.87;46.13;49.52;;
79200;Laerm;68628;48.714;9.472;2023-07-13T02:33:36;46.89;46.21;47.81;;
79200;Laerm;68628;48.714;9.472;2023-07-13T02:36:02;46.87;46.21;48.00;;
79200;Laerm;68628;48.714;9.472;2023-07-13T02:38:28;47.03;46.28;50.10;;
79200;Laerm;68628;48.714;9.472;2023-07-13T02:40:54;46.96;46.25;48.19;;
79200;Laerm;68628;48.714;9.472;2023-07-13T02:43:19;46.88;46.34;47.93;;
79200;Laerm;68628;48.714;9.472;2023-07-13T03:26:17;46.95;46.21;49.66;;
79200;Laerm;68628;48.714;9.472;2023-07-13T03:28:44;46.83;46.26;47.50;;
79200;Laerm;68628;48.714;9.472;2023-07-13T03:31:18;46.85;46.27;47.60;;
79200;Laerm;68628;48.714;9.472;2023-07-13T03:33:44;46.85;46.31;48.01;;
79200;Laerm;68628;48.714;9.472;2023-07-13T03:36:17;46.88;46.28;48.05;;
79200;Laerm;68628;48.714;9.472;2023-07-13T03:38:51;46.84;46.23;47.52;;
79200;Laerm;68628;48.714;9.472;2023-07-13T03:41:17;46.85;46.27;47.75;;
79200;Laerm;68628;48.714;9.472;2023-07-13T03:43:44;46.91;46.27;48.52;;
79200;Laerm;68628;48.714;9.472;2023-07-13T03:46:10;46.84;46.30;47.52;;
79200;Laerm;68628;48.714;9.472;2023-07-13T03:48:36;46.84;46.18;47.37;;
79200;Laerm;68628;48.714;9.472;2023-07-13T03:51:03;46.84;46.31;48.81;;
79200;Laerm;68628;48.714;9.472;2023-07-13T03:53:29;47.17;46.28;49.17;;
79200;Laerm;68628;48.714;9.472;2023-07-13T03:55:55;46.92;46.21;48.15;;
79200;Laerm;68628;48.714;9.472;2023-07-13T03:58:32;46.86;46.25;49.25;;
79200;Laerm;68628;48.714;9.472;2023-07-13T04:01:00;46.89;46.23;48.67;;
79200;Laerm;68628;48.714;9.472;2023-07-13T04:03:29;46.90;46.37;47.87;;
79200;Laerm;68628;48.714;9.472;2023-07-13T04:05:56;46.85;46.38;47.78;;
79200;Laerm;68628;48.714;9.472;2023-07-13T04:08:31;46.83;46.25;47.44;;
79200;Laerm;68628;48.714;9.472;2023-07-13T04:10:59;46.84;46.30;47.49;;
79200;Laerm;68628;48.714;9.472;2023-07-13T04:13:26;46.84;46.31;47.39;;
79200;Laerm;68628;48.714;9.472;2023-07-13T04:15:53;46.88;46.33;48.58;;
79200;Laerm;68628;48.714;9.472;2023-07-13T04:18:20;46.86;46.22;47.45;;
79200;Laerm;68628;48.714;9.472;2023-07-13T04:20:50;46.86;46.36;47.49;;
79200;Laerm;68628;48.714;9.472;2023-07-13T04:23:17;46.81;46.26;48.58;;
79200;Laerm;68628;48.714;9.472;2023-07-13T04:25:45;47.20;46.21;48.55;;
79200;Laerm;68628;48.714;9.472;2023-07-13T04:28:12;47.20;46.34;49.49;;
79200;Laerm;68628;48.714;9.472;2023-07-13T04:30:38;46.85;46.22;48.53;;
79200;Laerm;68628;48.714;9.472;2023-07-13T04:33:03;46.80;46.09;47.46;;
79200;Laerm;68628;48.714;9.472;2023-07-13T04:35:30;46.95;46.27;52.95;;
79200;Laerm;68628;48.714;9.472;2023-07-13T04:37:56;46.93;46.26;49.65;;
79200;Laerm;68628;48.714;9.472;2023-07-13T04:40:22;46.88;46.28;47.82;;
79200;Laerm;68628;48.714;9.472;2023-07-13T04:42:47;46.88;46.30;47.93;;
79200;Laerm;68628;48.714;9.472;2023-07-13T04:45:16;46.84;46.22;47.83;;
79200;Laerm;68628;48.714;9.472;2023-07-13T04:47:42;46.95;46.31;48.28;;
79200;Laerm;68628;48.714;9.472;2023-07-13T04:50:09;46.87;46.04;48.54;;
79200;Laerm;68628;48.714;9.472;2023-07-13T04:52:36;47.17;46.34;50.76;;
79200;Laerm;68628;48.714;9.472;2023-07-13T04:55:03;47.12;46.29;54.29;;
79200;Laerm;68628;48.714;9.472;2023-07-13T04:57:28;46.91;46.32;49.88;;
79200;Laerm;68628;48.714;9.472;2023-07-13T04:59:54;46.99;46.22;48.56;;
79200;Laerm;68628;48.714;9.472;2023-07-13T05:02:21;47.00;46.22;52.24;;
79200;Laerm;68628;48.714;9.472;2023-07-13T05:04:48;46.91;46.34;50.26;;
79200;Laerm;68628;48.714;9.472;2023-07-13T05:07:14;46.92;46.35;48.73;;
79200;Laerm;68628;48.714;9.472;2023-07-13T05:09:40;47.05;46.36;48.54;;
79200;Laerm;68628;48.714;9.472;2023-07-13T05:12:08;46.87;46.26;48.44;;
79200;Laerm;68628;48.714;9.472;2023-07-13T05:14:34;46.83;46.15;47.72;;
79200;Laerm;68628;48.714;9.472;2023-07-13T05:17:00;46.90;46.32;48.64;;
79200;Laerm;68628;48.714;9.472;2023-07-13T05:19:26;47.05;46.27;48.84;;
79200;Laerm;68628;48.714;9.472;2023-07-13T05:21:51;47.25;46.23;52.73;;
79200;Laerm;68628;48.714;9.472;2023-07-13T05:24:17;47.28;46.35;49.93;;
79200;Laerm;68628;48.714;9.472;2023-07-13T05:26:44;47.01;46.19;48.36;;
79200;Laerm;68628;48.714;9.472;2023-07-13T05:29:10;46.88;46.09;48.64;;
79200;Laerm;68628;48.714;9.472;2023-07-13T05:31:36;47.12;46.25;49.32;;
79200;Laerm;68628;48.714;9.472;2023-07-13T05:34:02;46.97;46.29;48.32;;
79200;Laerm;68628;48.714;9.472;2023-07-13T05:36:27;48.22;46.21;54.62;;
79200;Laerm;68628;48.714;9.472;2023-07-13T05:38:53;46.95;46.30;49.28;;
79200;Laerm;68628;48.714;9.472;2023-07-13T05:41:19;46.88;46.26;48.22;;
79200;Laerm;68628;48.714;9.472;2023-07-13T05:43:44;46.91;46.35;48.12;;
79200;Laerm;68628;48.714;9.472;2023-07-13T05:46:10;46.97;46.40;48.53;;
79200;Laerm;68628;48.714;9.472;2023-07-13T05:48:35;46.90;46.26;48.54;;
79200;Laerm;68628;48.714;9.472;2023-07-13T05:51:01;47.00;46.14;52.24;;
79200;Laerm;68628;48.714;9.472;2023-07-13T05:53:27;47.12;46.29;49.65;;
79200;Laerm;68628;48.714;9.472;2023-07-13T05:55:54;46.98;46.24;49.80;;
79200;Laerm;68628;48.714;9.472;2023-07-13T05:58:21;46.92;46.29;50.06;;
79200;Laerm;68628;48.714;9.472;2023-07-13T06:00:48;46.88;46.19;50.96;;
79200;Laerm;68628;48.714;9.472;2023-07-13T06:03:14;47.01;46.23;48.80;;
79200;Laerm;68628;48.714;9.472;2023-07-13T06:05:41;46.80;46.17;48.17;;
79200;Laerm;68628;48.714;9.472;2023-07-13T06:08:07;47.14;46.27;48.92;;
79200;Laerm;68628;48.714;9.472;2023-07-13T06:10:35;47.11;46.31;48.75;;
79200;Laerm;68628;48.714;9.472;2023-07-13T06:13:02;47.33;46.47;49.86;;
79200;Laerm;68628;48.714;9.472;2023-07-13T06:15:28;47.03;46.32;49.20;;
79200;Laerm;68628;48.714;9.472;2023-07-13T06:17:54;46.88;46.26;47.65;;
79200;Laerm;68628;48.714;9.472;2023-07-13T06:20:20;47.03;46.41;47.89;;
79200;Laerm;68628;48.714;9.472;2023-07-13T06:22:46;47.52;46.51;49.65;;
79200;Laerm;68628;48.714;9.472;2023-07-13T06:25:11;47.43;46.59;48.92;;
79200;Laerm;68628;48.714;9.472;2023-07-13T06:27:37;47.47;46.55;48.79;;
79200;Laerm;68628;48.714;9.472;2023-07-13T06:30:03;47.97;46.23;52.06;;
79200;Laerm;68628;48.714;9.472;2023-07-13T06:32:29;51.97;46.56;58.97;;
79200;Laerm;68628;48.714;9.472;2023-07-13T06:34:54;48.28;46.62;52.16;;
79200;Laerm;68628;48.714;9.472;2023-07-13T06:37:20;50.01;46.41;57.51;;
79200;Laerm;68628;48.714;9.472;2023-07-13T06:39:45;47.92;46.05;60.46;;
79200;Laerm;68628;48.714;9.472;2023-07-13T06:42:11;49.99;46.97;56.31;;
79200;Laerm;68628;48.714;9.472;2023-07-13T06:44:37;51.85;47.33;63.03;;
79200;Laerm;68628;48.714;9.472;2023-07-13T06:47:03;51.57;46.88;60.50;;
79200;Laerm;68628;48.714;9.472;2023-07-13T06:49:29;50.74;46.82;64.19;;
79200;Laerm;68628;48.714;9.472;2023-07-13T06:51:54;50.69;47.14;57.18;;
79200;Laerm;68628;48.714;9.472;2023-07-13T06:54:20;50.60;46.50;61.12;;
79200;Laerm;68628;48.714;9.472;2023-07-13T06:56:46;49.54;47.14;57.78;;
79200;Laerm;68628;48.714;9.472;2023-07-13T06:59:11;52.03;47.08;64.11;;
79200;Laerm;68628;48.714;9.472;2023-07-13T07:01:37;56.11;47.32;64.51;;
79200;Laerm;68628;48.714;9.472;2023-07-13T07:04:03;51.36;47.02;60.04;;
79200;Laerm;68628;48.714;9.472;2023-07-13T07:06:29;55.08;47.84;66.52;;
79200;Laerm;68628;48.714;9.472;2023-07-13T07:08:55;52.46;47.18;61.28;;
79200;Laerm;68628;48.714;9.472;2023-07-13T07:11:24;52.24;47.53;64.65;;
79200;Laerm;68628;48.714;9.472;2023-07-13T07:13:52;51.66;46.74;59.25;;
79200;Laerm;68628;48.714;9.472;2023-07-13T07:16:20;53.98;47.25;65.75;;
79200;Laerm;68628;48.714;9.472;2023-07-13T07:18:46;55.39;47.70;67.01;;
79200;Laerm;68628;48.714;9.472;2023-07-13T07:21:13;57.32;48.75;69.32;;
79200;Laerm;68628;48.714;9.472;2023-07-13T07:23:41;58.40;48.52;70.91;;
79200;Laerm;68628;48.714;9.472;2023-07-13T07:26:07;57.58;48.42;69.06;;
79200;Laerm;68628;48.714;9.472;2023-07-13T07:28:36;55.15;48.99;69.67;;
79200;Laerm;68628;48.714;9.472;2023-07-13T07:31:01;59.77;49.41;72.59;;
79200;Laerm;68628;48.714;9.472;2023-07-13T07:33:27;55.58;48.12;65.49;;
79200;Laerm;68628;48.714;9.472;2023-07-13T07:35:53;55.95;49.26;65.36;;
79200;Laerm;68628;48.714;9.472;2023-07-13T07:38:19;55.82;48.59;65.43;;
79200;Laerm;68628;48.714;9.472;2023-07-13T07:40:45;56.91;48.79;70.75;;
79200;Laerm;68628;48.714;9.472;2023-07-13T07:43:12;60.23;49.15;74.76;;
79200;Laerm;68628;48.714;9.472;2023-07-13T07:45:41;57.02;49.30;68.67;;
79200;Laerm;68628;48.714;9.472;2023-07-13T07:48:07;58.15;49.05;70.29;;
79200;Laerm;68628;48.714;9.472;2023-07-13T07:50:35;55.87;48.00;66.91;;
79200;Laerm;68628;48.714;9.472;2023-07-13T07:53:02;55.97;48.35;69.05;;
79200;Laerm;68628;48.714;9.472;2023-07-13T07:55:28;58.36;47.95;72.51;;
79200;Laerm;68628;48.714;9.472;2023-07-13T07:57:56;56.30;47.90;70.43;;
79200;Laerm;68628;48.714;9.472;2023-07-13T08:00:22;57.61;48.53;69.84;;
79200;Laerm;68628;48.714;9.472;2023-07-13T08:02:48;56.34;49.33;67.40;;
79200;Laerm;68628;48.714;9.472;2023-07-13T08:05:14;55.22;49.38;68.67;;
79200;Laerm;68628;48.714;9.472;2023-07-13T08:07:40;57.26;49.75;67.12;;
79200;Laerm;68628;48.714;9.472;2023-07-13T08:10:07;57.24;48.97;71.63;;
79200;Laerm;68628;48.714;9.472;2023-07-13T08:12:35;54.64;49.51;62.25;;
79200;Laerm;68628;48.714;9.472;2023-07-13T08:15:02;55.57;48.77;69.25;;
79200;Laerm;68628;48.714;9.472;2023-07-13T08:17:28;59.55;47.83;74.22;;
79200;Laerm;68628;48.714;9.472;2023-07-13T08:19:54;57.18;48.89;75.07;;
79200;Laerm;68628;48.714;9.472;2023-07-13T08:22:20;55.11;49.23;67.87;;
79200;Laerm;68628;48.714;9.472;2023-07-13T08:24:46;53.90;49.32;62.64;;
79200;Laerm;68628;48.714;9.472;2023-07-13T08:27:13;54.16;48.43;70.14;;
79200;Laerm;68628;48.714;9.472;2023-07-13T08:29:39;57.02;49.14;68.26;;
79200;Laerm;68628;48.714;9.472;2023-07-13T08:32:07;54.66;48.47;66.37;;
79200;Laerm;68628;48.714;9.472;2023-07-13T08:34:35;56.64;48.87;69.09;;
79200;Laerm;68628;48.714;9.472;2023-07-13T08:37:02;58.43;49.85;70.12;;
79200;Laerm;68628;48.714;9.472;2023-07-13T08:39:30;57.51;49.68;66.49;;
79200;Laerm;68628;48.714;9.472;2023-07-13T08:42:10;58.09;48.45;71.91;;
79200;Laerm;68628;48.714;9.472;2023-07-13T08:47:46;56.33;48.30;68.97;;
79200;Laerm;68628;48.714;9.472;2023-07-13T08:50:19;55.30;48.24;65.88;;
79200;Laerm;68628;48.714;9.472;2023-07-13T08:52:48;56.24;47.16;68.32;;
79200;Laerm;68628;48.714;9.472;2023-07-13T08:55:26;59.34;48.03;74.24;;
79200;Laerm;68628;48.714;9.472;2023-07-13T08:58:11;54.73;48.57;64.57;;
79200;Laerm;68628;48.714;9.472;2023-07-13T09:04:13;57.62;49.89;72.18;;
79200;Laerm;68628;48.714;9.472;2023-07-13T09:13:30;56.89;49.85;71.87;;
79200;Laerm;68628;48.714;9.472;2023-07-13T09:16:00;62.76;50.12;72.13;;
79200;Laerm;68628;48.714;9.472;2023-07-13T09:18:40;58.12;49.18;69.39;;
79200;Laerm;68628;48.714;9.472;2023-07-13T09:21:15;56.55;49.69;69.22;;
79200;Laerm;68628;48.714;9.472;2023-07-13T09:23:42;57.35;48.41;72.27;;
79200;Laerm;68628;48.714;9.472;2023-07-13T09:26:22;58.16;49.89;74.10;;
79200;Laerm;68628;48.714;9.472;2023-07-13T09:28:57;58.32;49.85;68.57;;
79200;Laerm;68628;48.714;9.472;2023-07-13T09:31:33;60.69;50.18;72.24;;
79200;Laerm;68628;48.714;9.472;2023-07-13T09:34:00;56.47;50.31;72.19;;
79200;Laerm;68628;48.714;9.472;2023-07-13T09:36:32;60.49;49.49;76.64;;
79200;Laerm;68628;48.714;9.472;2023-07-13T09:39:27;55.80;49.50;67.20;;
79200;Laerm;68628;48.714;9.472;2023-07-13T09:42:17;57.22;48.32;72.51;;
79200;Laerm;68628;48.714;9.472;2023-07-13T09:44:55;57.53;48.96;69.49;;
79200;Laerm;68628;48.714;9.472;2023-07-13T09:47:30;57.72;49.88;73.03;;
79200;Laerm;68628;48.714;9.472;2023-07-13T09:50:03;61.40;50.40;74.38;;
79200;Laerm;68628;48.714;9.472;2023-07-13T09:52:50;54.31;48.11;69.75;;
79200;Laerm;68628;48.714;9.472;2023-07-13T09:55:38;57.78;48.87;71.28;;
79200;Laerm;68628;48.714;9.472;2023-07-13T10:00:39;61.32;48.71;76.31;;
79200;Laerm;68628;48.714;9.472;2023-07-13T10:03:29;59.99;50.11;71.87;;
79200;Laerm;68628;48.714;9.472;2023-07-13T10:06:12;59.84;51.76;68.19;;
79200;Laerm;68628;48.714;9.472;2023-07-13T10:08:39;61.70;50.16;72.27;;
79200;Laerm;68628;48.714;9.472;2023-07-13T10:11:27;58.55;49.88;73.44;;
79200;Laerm;68628;48.714;9.472;2023-07-13T10:16:43;59.01;48.73;69.67;;
79200;Laerm;68628;48.714;9.472;2023-07-13T10:19:24;59.43;48.57;67.21;;
79200;Laerm;68628;48.714;9.472;2023-07-13T10:22:23;56.99;48.94;69.91;;
79200;Laerm;68628;48.714;9.472;2023-07-13T10:24:49;61.19;48.76;73.23;;
79200;Laerm;68628;48.714;9.472;2023-07-13T10:27:33;58.93;49.76;69.85;;
79200;Laerm;68628;48.714;9.472;2023-07-13T10:30:12;60.80;51.25;74.18;;
79200;Laerm;68628;48.714;9.472;2023-07-13T10:32:39;56.78;49.32;68.75;;
79200;Laerm;68628;48.714;9.472;2023-07-13T10:35:12;57.95;48.65;67.59;;
79200;Laerm;68628;48.714;9.472;2023-07-13T10:37:53;59.52;48.90;72.20;;
79200;Laerm;68628;48.714;9.472;2023-07-13T10:40:33;60.87;48.64;71.59;;
79200;Laerm;68628;48.714;9.472;2023-07-13T10:43:09;56.39;48.42;64.13;;
79200;Laerm;68628;48.714;9.472;2023-07-13T10:45:41;57.89;51.14;64.43;;
79200;Laerm;68628;48.714;9.472;2023-07-13T10:48:14;58.26;49.19;70.83;;
79200;Laerm;68628;48.714;9.472;2023-07-13T10:50:46;61.02;48.75;75.73;;
79200;Laerm;68628;48.714;9.472;2023-07-13T10:53:42;55.64;48.06;68.93;;
79200;Laerm;68628;48.714;9.472;2023-07-13T10:56:29;56.37;48.67;72.43;;
79200;Laerm;68628;48.714;9.472;2023-07-13T10:59:14;63.32;48.13;76.91;;
79200;Laerm;68628;48.714;9.472;2023-07-13T11:01:57;57.95;49.81;67.52;;
79200;Laerm;68628;48.714;9.472;2023-07-13T11:04:27;57.82;49.70;69.23;;
79200;Laerm;68628;48.714;9.472;2023-07-13T11:07:11;57.61;49.32;69.52;;
79200;Laerm;68628;48.714;9.472;2023-07-13T11:09:40;56.95;49.84;65.68;;
79200;Laerm;68628;48.714;9.472;2023-07-13T11:15:13;59.14;49.90;72.22;;
79200;Laerm;68628;48.714;9.472;2023-07-13T11:17:54;63.40;50.31;74.26;;
79200;Laerm;68628;48.714;9.472;2023-07-13T11:20:39;60.93;49.14;77.60;;
79200;Laerm;68628;48.714;9.472;2023-07-13T11:25:42;61.69;50.93;76.46;;
79200;Laerm;68628;48.714;9.472;2023-07-13T11:30:48;58.65;49.94;69.26;;
79200;Laerm;68628;48.714;9.472;2023-07-13T11:33:49;58.37;51.93;68.50;;
79200;Laerm;68628;48.714;9.472;2023-07-13T11:36:23;56.27;51.19;64.89;;
79200;Laerm;68628;48.714;9.472;2023-07-13T11:41:35;57.42;50.06;69.44;;
79200;Laerm;68628;48.714;9.472;2023-07-13T11:44:20;57.45;49.27;68.05;;
79200;Laerm;68628;48.714;9.472;2023-07-13T11:46:54;58.60;48.97;70.69;;
79200;Laerm;68628;48.714;9.472;2023-07-13T11:49:24;57.65;49.78;67.37;;
79200;Laerm;68628;48.714;9.472;2023-07-13T11:51:52;59.97;49.69;75.63;;
79200;Laerm;68628;48.714;9.472;2023-07-13T11:54:30;57.77;49.52;69.56;;
79200;Laerm;68628;48.714;9.472;2023-07-13T11:57:01;62.70;50.78;80.27;;
79200;Laerm;68628;48.714;9.472;2023-07-13T11:59:33;57.11;48.09;71.54;;
79200;Laerm;68628;48.714;9.472;2023-07-13T12:02:24;61.40;49.91;74.98;;
79200;Laerm;68628;48.714;9.472;2023-07-13T12:04:53;60.12;49.36;70.56;;
79200;Laerm;68628;48.714;9.472;2023-07-13T12:07:19;58.21;49.06;69.98;;
79200;Laerm;68628;48.714;9.472;2023-07-13T12:09:45;59.75;49.10;73.55;;
79200;Laerm;68628;48.714;9.472;2023-07-13T12:12:19;67.15;50.22;76.66;;
79200;Laerm;68628;48.714;9.472;2023-07-13T12:14:45;62.55;49.20;73.28;;
79200;Laerm;68628;48.714;9.472;2023-07-13T12:17:23;57.37;49.46;65.89;;
79200;Laerm;68628;48.714;9.472;2023-07-13T12:19:52;55.52;48.62;64.44;;
79200;Laerm;68628;48.714;9.472;2023-07-13T12:22:20;60.50;49.38;72.65;;
79200;Laerm;68628;48.714;9.472;2023-07-13T12:24:48;59.43;49.93;71.30;;
79200;Laerm;68628;48.714;9.472;2023-07-13T12:27:27;61.56;49.09;77.65;;
79200;Laerm;68628;48.714;9.472;2023-07-13T12:30:23;59.92;50.62;74.56;;
79200;Laerm;68628;48.714;9.472;2023-07-13T12:32:58;62.57;50.42;76.47;;
79200;Laerm;68628;48.714;9.472;2023-07-13T12:35:28;60.54;50.54;67.25;;
79200;Laerm;68628;48.714;9.472;2023-07-13T12:37:57;57.43;49.03;72.57;;
79200;Laerm;68628;48.714;9.472;2023-07-13T12:40:34;60.75;50.19;73.64;;
79200;Laerm;68628;48.714;9.472;2023-07-13T12:43:01;59.59;51.21;69.12;;
79200;Laerm;68628;48.714;9.472;2023-07-13T12:45:30;58.78;50.46;69.83;;
79200;Laerm;68628;48.714;9.472;2023-07-13T12:48:03;57.00;49.84;71.94;;
79200;Laerm;68628;48.714;9.472;2023-07-13T12:50:47;57.94;49.16;68.58;;
79200;Laerm;68628;48.714;9.472;2023-07-13T12:53:17;58.19;50.11;69.05;;
79200;Laerm;68628;48.714;9.472;2023-07-13T12:56:02;59.43;49.92;71.27;;
79200;Laerm;68628;48.714;9.472;2023-07-13T12:58:40;60.40;51.34;75.74;;
79200;Laerm;68628;48.714;9.472;2023-07-13T13:01:13;61.32;50.99;71.04;;
79200;Laerm;68628;48.714;9.472;2023-07-13T13:03:51;58.88;50.10;69.15;;
79200;Laerm;68628;48.714;9.472;2023-07-13T13:06:28;60.83;50.91;72.28;;
79200;Laerm;68628;48.714;9.472;2023-07-13T13:08:57;61.22;51.00;73.67;;
79200;Laerm;68628;48.714;9.472;2023-07-13T13:11:30;58.32;50.18;71.05;;
79200;Laerm;68628;48.714;9.472;2023-07-13T13:13:56;59.48;50.19;73.27;;
79200;Laerm;68628;48.714;9.472;2023-07-13T13:16:30;60.77;51.45;71.36;;
79200;Laerm;68628;48.714;9.472;2023-07-13T13:19:13;57.91;49.15;74.63;;
79200;Laerm;68628;48.714;9.472;2023-07-13T13:21:39;58.31;50.04;70.33;;
79200;Laerm;68628;48.714;9.472;2023-07-13T13:24:19;58.28;50.32;72.84;;
79200;Laerm;68628;48.714;9.472;2023-07-13T13:26:47;59.54;50.07;71.49;;
79200;Laerm;68628;48.714;9.472;2023-07-13T13:29:21;57.03;49.58;67.16;;
79200;Laerm;68628;48.714;9.472;2023-07-13T13:31:49;59.89;50.95;68.98;;
79200;Laerm;68628;48.714;9.472;2023-07-13T13:34:17;59.39;50.92;67.52;;
79200;Laerm;68628;48.714;9.472;2023-07-13T13:36:47;59.67;51.32;77.59;;
79200;Laerm;68628;48.714;9.472;2023-07-13T13:39:29;60.62;49.82;75.49;;
79200;Laerm;68628;48.714;9.472;2023-07-13T13:41:56;59.09;50.83;66.40;;
79200;Laerm;68628;48.714;9.472;2023-07-13T13:44:22;59.80;52.37;68.30;;
79200;Laerm;68628;48.714;9.472;2023-07-13T13:46:54;59.53;50.68;68.07;;
79200;Laerm;68628;48.714;9.472;2023-07-13T13:49:24;58.82;50.44;72.11;;
79200;Laerm;68628;48.714;9.472;2023-07-13T13:51:52;57.11;50.23;68.28;;
79200;Laerm;68628;48.714;9.472;2023-07-13T13:54:21;58.97;52.28;67.92;;
79200;Laerm;68628;48.714;9.472;2023-07-13T13:56:51;58.41;50.25;68.19;;
79200;Laerm;68628;48.714;9.472;2023-07-13T13:59:18;58.49;48.15;67.70;;
